createdAt,value
2018-09-30T00:01:28.419Z,80.61
2018-09-30T00:03:57.715Z,80.27
2018-09-30T00:06:26.847Z,80.70
2018-09-30T00:08:55.969Z,80.01
2018-09-30T00:11:25.143Z,80.02
2018-09-30T00:13:54.312Z,80.72
2018-09-30T00:16:23.477Z,80.81
2018-09-30T00:18:52.603Z,81.17
2018-09-30T00:21:21.817Z,81.18
2018-09-30T00:23:56.372Z,81.41
2018-09-30T00:26:30.588Z,81.89
2018-09-30T00:28:59.722Z,81.82
2018-09-30T00:31:28.833Z,82.09
2018-09-30T00:34:03.376Z,81.94
2018-09-30T00:36:32.576Z,82.30
2018-09-30T00:39:01.739Z,81.71
2018-09-30T00:41:30.843Z,81.42
2018-09-30T00:44:00.124Z,82.06
2018-09-30T00:46:29.254Z,81.42
2018-09-30T00:48:58.469Z,81.62
2018-09-30T00:51:27.617Z,82.06
2018-09-30T00:53:56.721Z,82.03
2018-09-30T00:56:25.957Z,81.62
2018-09-30T00:58:55.261Z,81.29
2018-09-30T01:01:24.441Z,81.29
2018-09-30T01:03:53.702Z,81.64
2018-09-30T01:06:23.251Z,81.30
2018-09-30T01:08:52.382Z,81.15
2018-09-30T01:11:22.132Z,81.03
2018-09-30T01:13:51.229Z,81.50
2018-09-30T01:16:20.352Z,81.11
2018-09-30T01:18:49.492Z,80.89
2018-09-30T01:21:18.617Z,80.60
2018-09-30T01:23:47.751Z,79.96
2018-09-30T01:26:16.911Z,80.30
2018-09-30T01:28:46.028Z,80.69
2018-09-30T01:31:15.170Z,81.13
2018-09-30T01:33:44.396Z,81.17
2018-09-30T01:36:13.508Z,80.70
2018-09-30T01:38:42.729Z,81.28
2018-09-30T01:41:11.923Z,81.60
2018-09-30T01:43:41.045Z,81.78
2018-09-30T01:46:10.303Z,81.58
2018-09-30T01:48:39.425Z,81.31
2018-09-30T01:51:08.543Z,80.89
2018-09-30T01:53:37.840Z,80.95
2018-09-30T01:56:07.048Z,80.75
2018-09-30T01:58:36.204Z,80.65
2018-09-30T02:01:05.405Z,80.42
2018-09-30T02:03:34.557Z,80.59
2018-09-30T02:06:03.829Z,80.69
2018-09-30T02:08:32.954Z,80.73
2018-09-30T02:11:02.098Z,80.55
2018-09-30T02:13:31.263Z,80.89
2018-09-30T02:16:00.391Z,81.25
2018-09-30T02:18:29.536Z,81.16
2018-09-30T02:20:58.724Z,81.35
2018-09-30T02:23:27.928Z,81.91
2018-09-30T02:25:57.106Z,81.78
2018-09-30T02:28:26.231Z,81.30
2018-09-30T02:30:55.416Z,81.14
2018-09-30T02:33:24.535Z,81.05
2018-09-30T02:35:53.694Z,81.28
2018-09-30T02:38:22.848Z,81.54
2018-09-30T02:40:52.032Z,81.24
2018-09-30T02:43:21.136Z,81.74
2018-09-30T02:45:50.225Z,81.73
2018-09-30T02:48:19.384Z,81.26
2018-09-30T02:50:48.911Z,81.76
2018-09-30T02:53:18.008Z,81.56
2018-09-30T02:55:47.180Z,81.02
2018-09-30T02:58:16.299Z,81.15
2018-09-30T03:00:45.470Z,81.39
2018-09-30T03:03:14.893Z,80.46
2018-09-30T03:05:43.982Z,80.86
2018-09-30T03:08:18.410Z,80.95
2018-09-30T03:10:47.549Z,80.87
2018-09-30T03:13:17.005Z,81.10
2018-09-30T03:15:46.158Z,81.09
2018-09-30T03:18:15.280Z,81.08
2018-09-30T03:20:44.408Z,81.18
2018-09-30T03:23:13.520Z,81.50
2018-09-30T03:25:42.694Z,80.97
2018-09-30T03:28:11.823Z,81.55
2018-09-30T03:30:40.912Z,81.50
2018-09-30T03:33:10.072Z,81.33
2018-09-30T03:35:39.173Z,81.15
2018-09-30T03:38:08.276Z,81.49
2018-09-30T03:40:37.440Z,81.11
2018-09-30T03:43:06.621Z,80.61
2018-09-30T03:45:35.799Z,80.78
2018-09-30T03:48:04.896Z,81.02
2018-09-30T03:50:34.021Z,80.53
2018-09-30T03:53:03.133Z,81.45
2018-09-30T03:55:32.227Z,81.80
2018-09-30T03:58:01.369Z,81.10
2018-09-30T04:00:31.527Z,81.20
2018-09-30T04:03:00.661Z,81.04
2018-09-30T04:05:29.768Z,81.79
2018-09-30T04:07:59.204Z,81.61
2018-09-30T04:10:28.308Z,81.81
2018-09-30T04:12:57.548Z,81.55
2018-09-30T04:15:27.040Z,81.81
2018-09-30T04:17:56.135Z,81.57
2018-09-30T04:20:25.244Z,81.51
2018-09-30T04:22:54.404Z,81.52
2018-09-30T04:25:23.833Z,81.37
2018-09-30T04:27:52.966Z,81.60
2018-09-30T04:30:22.097Z,81.77
2018-09-30T04:32:51.216Z,82.18
2018-09-30T04:35:20.367Z,81.76
2018-09-30T04:37:49.525Z,81.33
2018-09-30T04:40:18.636Z,81.52
2018-09-30T04:42:47.766Z,81.24
2018-09-30T04:45:17.553Z,81.88
2018-09-30T04:47:46.704Z,82.26
2018-09-30T04:50:15.822Z,82.13
2018-09-30T04:52:44.952Z,82.08
2018-09-30T04:55:14.070Z,81.30
2018-09-30T04:57:43.168Z,80.92
2018-09-30T05:00:12.401Z,81.12
2018-09-30T05:02:41.482Z,81.42
2018-09-30T05:05:10.633Z,81.31
2018-09-30T05:07:40.188Z,81.93
2018-09-30T05:10:09.321Z,81.42
2018-09-30T05:12:38.410Z,81.83
2018-09-30T05:15:07.672Z,81.28
2018-09-30T05:17:36.817Z,81.94
2018-09-30T05:20:05.956Z,82.53
2018-09-30T05:22:35.065Z,81.65
2018-09-30T05:25:04.187Z,82.39
2018-09-30T05:27:33.617Z,81.73
2018-09-30T05:30:02.741Z,81.89
2018-09-30T05:32:31.944Z,82.25
2018-09-30T05:35:01.106Z,82.18
2018-09-30T05:37:30.564Z,82.06
2018-09-30T05:39:59.777Z,81.80
2018-09-30T05:42:28.978Z,81.86
2018-09-30T05:44:58.185Z,81.64
2018-09-30T05:47:27.391Z,81.80
2018-09-30T05:49:56.553Z,82.11
2018-09-30T05:52:25.761Z,81.45
2018-09-30T05:54:55.004Z,81.52
2018-09-30T05:57:24.554Z,81.86
2018-09-30T05:59:54.032Z,81.89
2018-09-30T06:02:23.230Z,82.16
2018-09-30T06:04:52.328Z,82.22
2018-09-30T06:07:21.463Z,82.55
2018-09-30T06:09:50.589Z,82.17
2018-09-30T06:12:19.825Z,82.68
2018-09-30T06:14:49.072Z,82.81
2018-09-30T06:17:18.211Z,82.28
2018-09-30T06:19:47.408Z,82.48
2018-09-30T06:22:16.571Z,82.91
2018-09-30T06:24:46.457Z,82.91
2018-09-30T06:27:16.457Z,83.11
2018-09-30T06:29:45.648Z,82.62
2018-09-30T06:32:14.879Z,83.18
2018-09-30T06:34:43.940Z,83.38
2018-09-30T06:37:13.391Z,83.17
2018-09-30T06:39:42.492Z,83.28
2018-09-30T06:42:12.656Z,83.14
2018-09-30T06:44:41.817Z,83.69
2018-09-30T06:47:10.962Z,83.84
2018-09-30T06:49:40.465Z,83.87
2018-09-30T06:52:09.657Z,83.95
2018-09-30T06:54:38.853Z,84.31
2018-09-30T06:57:08.023Z,83.65
2018-09-30T06:59:37.199Z,83.63
2018-09-30T07:02:06.543Z,83.57
2018-09-30T07:04:35.697Z,84.05
2018-09-30T07:07:04.812Z,84.08
2018-09-30T07:09:34.008Z,84.02
2018-09-30T07:12:03.141Z,84.09
2018-09-30T07:14:32.341Z,84.16
2018-09-30T07:17:01.477Z,83.77
2018-09-30T07:19:30.638Z,83.46
2018-09-30T07:21:59.820Z,83.66
2018-09-30T07:24:28.956Z,83.58
2018-09-30T07:26:58.125Z,83.24
2018-09-30T07:29:27.372Z,82.72
2018-09-30T07:31:56.523Z,82.50
2018-09-30T07:34:25.825Z,80.89
2018-09-30T07:36:54.990Z,80.38
2018-09-30T07:39:24.224Z,79.12
2018-09-30T07:41:53.825Z,77.55
2018-09-30T07:44:22.955Z,77.44
2018-09-30T07:46:52.232Z,76.98
2018-09-30T07:49:21.401Z,76.51
2018-09-30T07:51:50.609Z,75.81
2018-09-30T07:54:20.691Z,76.35
2018-09-30T07:56:49.813Z,76.08
2018-09-30T07:59:18.934Z,75.66
2018-09-30T08:01:48.159Z,75.42
2018-09-30T08:04:17.302Z,74.76
2018-09-30T08:06:46.447Z,74.09
2018-09-30T08:09:15.608Z,73.63
2018-09-30T08:11:44.744Z,73.42
2018-09-30T08:14:13.940Z,73.39
2018-09-30T08:16:43.083Z,73.15
2018-09-30T08:19:12.310Z,73.32
2018-09-30T08:21:41.453Z,72.75
2018-09-30T08:24:10.594Z,71.66
2018-09-30T08:26:39.732Z,71.06
2018-09-30T08:29:08.894Z,71.17
2018-09-30T08:31:38.076Z,71.10
2018-09-30T08:34:07.457Z,69.28
2018-09-30T08:36:36.611Z,68.89
2018-09-30T08:39:07.920Z,67.69
2018-09-30T08:41:37.033Z,67.32
2018-09-30T08:44:06.204Z,67.87
2018-09-30T08:46:35.607Z,67.74
2018-09-30T08:49:04.814Z,68.32
2018-09-30T08:51:33.968Z,67.72
2018-09-30T08:54:03.182Z,67.01
2018-09-30T08:56:32.371Z,67.11
2018-09-30T08:59:01.616Z,65.75
2018-09-30T09:01:30.888Z,66.37
2018-09-30T09:04:00.000Z,65.82
2018-09-30T09:06:29.162Z,65.54
2018-09-30T09:08:58.375Z,65.31
2018-09-30T09:11:27.630Z,65.25
2018-09-30T09:13:56.990Z,64.52
2018-09-30T09:16:26.148Z,64.42
2018-09-30T09:18:55.329Z,64.53
2018-09-30T09:21:24.616Z,63.51
2018-09-30T09:23:53.984Z,63.45
2018-09-30T09:26:23.158Z,60.99
2018-09-30T09:28:52.401Z,60.94
2018-09-30T09:31:21.681Z,60.22
2018-09-30T09:33:50.892Z,59.59
2018-09-30T09:36:20.100Z,59.79
2018-09-30T09:38:49.368Z,60.25
2018-09-30T09:41:18.559Z,60.00
2018-09-30T09:43:47.839Z,59.15
2018-09-30T09:46:17.102Z,58.93
2018-09-30T09:48:46.360Z,59.01
2018-09-30T09:51:15.532Z,57.99
2018-09-30T09:53:44.780Z,58.97
2018-09-30T09:56:14.236Z,57.79
2018-09-30T09:58:43.432Z,57.55
2018-09-30T10:01:12.628Z,57.27
2018-09-30T10:03:41.843Z,57.43
2018-09-30T10:06:11.968Z,56.66
2018-09-30T10:08:41.213Z,55.96
2018-09-30T10:11:10.544Z,56.39
2018-09-30T10:13:39.760Z,55.98
2018-09-30T10:16:08.961Z,55.91
2018-09-30T10:18:38.265Z,56.07
2018-09-30T10:21:07.696Z,55.19
2018-09-30T10:23:36.993Z,54.51
2018-09-30T10:26:06.397Z,54.66
2018-09-30T10:28:35.639Z,54.26
2018-09-30T10:31:04.942Z,54.43
2018-09-30T10:33:34.261Z,54.09
2018-09-30T10:36:05.850Z,52.93
2018-09-30T10:38:35.490Z,53.17
2018-09-30T10:41:06.216Z,53.87
2018-09-30T10:43:40.588Z,52.39
2018-09-30T10:48:49.907Z,51.88
2018-09-30T10:51:19.375Z,51.96
2018-09-30T10:53:48.675Z,52.74
2018-09-30T10:56:17.809Z,50.79
2018-09-30T10:58:47.075Z,49.82
2018-09-30T11:01:16.323Z,50.36
2018-09-30T11:03:45.502Z,50.59
2018-09-30T11:06:14.680Z,51.31
2018-09-30T11:08:44.703Z,48.43
2018-09-30T11:11:13.989Z,47.96
2018-09-30T11:13:43.205Z,48.42
2018-09-30T11:16:12.530Z,47.76
2018-09-30T11:18:41.687Z,46.95
2018-09-30T11:21:11.053Z,47.13
2018-09-30T11:23:40.339Z,47.78
2018-09-30T11:26:09.723Z,48.81
2018-09-30T11:28:38.901Z,46.99
2018-09-30T11:31:08.109Z,48.17
2018-09-30T11:33:37.380Z,48.04
2018-09-30T11:36:06.649Z,47.11
2018-09-30T11:38:35.911Z,49.34
2018-09-30T11:41:07.506Z,48.06
2018-09-30T11:43:37.554Z,50.25
2018-09-30T11:46:06.981Z,50.06
2018-09-30T11:51:17.320Z,49.02
2018-09-30T11:53:47.340Z,49.08
2018-09-30T11:56:16.928Z,50.11
2018-09-30T11:58:46.260Z,49.30
2018-09-30T12:01:17.636Z,48.61
2018-09-30T12:03:46.894Z,48.75
2018-09-30T12:06:16.178Z,50.79
2018-09-30T12:08:45.507Z,49.97
2018-09-30T12:11:14.966Z,49.40
2018-09-30T12:13:44.356Z,49.04
2018-09-30T12:16:13.528Z,48.50
2018-09-30T12:18:42.836Z,48.96
2018-09-30T12:21:12.087Z,49.43
2018-09-30T12:23:41.434Z,49.73
2018-09-30T12:26:10.669Z,49.65
2018-09-30T12:28:39.860Z,49.33
2018-09-30T12:31:09.177Z,50.85
2018-09-30T12:33:38.685Z,50.40
2018-09-30T12:36:08.092Z,49.57
2018-09-30T12:38:37.501Z,49.76
2018-09-30T12:41:07.373Z,49.82
2018-09-30T12:43:37.202Z,50.01
2018-09-30T12:46:06.463Z,50.04
2018-09-30T12:48:35.616Z,51.07
2018-09-30T12:51:04.916Z,50.35
2018-09-30T12:53:34.195Z,50.65
2018-09-30T12:56:05.523Z,50.24
2018-09-30T12:58:34.738Z,48.92
2018-09-30T13:01:04.857Z,49.31
2018-09-30T13:03:34.180Z,50.99
2018-09-30T13:06:03.813Z,50.28
2018-09-30T13:08:33.120Z,50.64
2018-09-30T13:11:02.316Z,50.67
2018-09-30T13:13:31.904Z,50.69
2018-09-30T13:16:01.704Z,49.88
2018-09-30T13:18:31.097Z,51.69
2018-09-30T13:21:00.539Z,50.95
2018-09-30T13:23:29.684Z,50.70
2018-09-30T13:25:58.888Z,50.04
2018-09-30T13:28:28.268Z,51.00
2018-09-30T13:30:57.838Z,51.42
2018-09-30T13:33:27.025Z,51.30
2018-09-30T13:35:56.235Z,51.41
2018-09-30T13:38:25.869Z,51.28
2018-09-30T13:40:55.181Z,52.29
2018-09-30T13:43:24.388Z,51.63
2018-09-30T13:45:53.761Z,51.55
2018-09-30T13:48:23.004Z,52.89
2018-09-30T13:50:52.555Z,52.52
2018-09-30T13:53:22.244Z,52.29
2018-09-30T13:55:51.809Z,51.89
2018-09-30T13:58:21.305Z,52.28
2018-09-30T14:00:50.816Z,52.75
2018-09-30T14:03:19.985Z,53.50
2018-09-30T14:05:49.234Z,53.52
2018-09-30T14:08:18.616Z,54.56
2018-09-30T14:10:47.792Z,53.19
2018-09-30T14:13:17.232Z,54.28
2018-09-30T14:15:46.523Z,54.47
2018-09-30T14:18:15.999Z,53.49
2018-09-30T14:20:45.591Z,54.11
2018-09-30T14:23:14.982Z,55.10
2018-09-30T14:28:22.329Z,54.64
2018-09-30T14:30:51.482Z,55.96
2018-09-30T14:33:20.652Z,56.31
2018-09-30T14:35:49.905Z,55.38
2018-09-30T14:38:19.417Z,56.06
2018-09-30T14:40:48.657Z,55.93
2018-09-30T14:43:17.841Z,55.77
2018-09-30T14:45:47.030Z,56.44
2018-09-30T14:48:16.301Z,57.05
2018-09-30T14:50:45.444Z,57.44
2018-09-30T14:53:14.581Z,56.34
2018-09-30T14:55:43.784Z,57.20
2018-09-30T14:58:13.179Z,56.78
2018-09-30T15:00:42.354Z,56.05
2018-09-30T15:03:11.533Z,57.62
2018-09-30T15:05:40.765Z,58.19
2018-09-30T15:08:09.900Z,57.36
2018-09-30T15:10:39.044Z,57.27
2018-09-30T15:13:08.801Z,58.00
2018-09-30T15:15:38.443Z,57.15
2018-09-30T15:18:07.927Z,58.79
2018-09-30T15:20:37.599Z,59.84
2018-09-30T15:23:06.936Z,60.16
2018-09-30T15:25:36.904Z,60.50
2018-09-30T15:28:06.835Z,58.77
2018-09-30T15:30:36.299Z,59.38
2018-09-30T15:33:05.856Z,59.60
2018-09-30T15:35:36.151Z,60.99
2018-09-30T15:38:06.182Z,60.11
2018-09-30T15:40:35.952Z,62.42
2018-09-30T15:43:05.836Z,62.84
2018-09-30T15:45:35.464Z,63.15
2018-09-30T15:48:05.322Z,65.20
2018-09-30T15:50:35.248Z,66.30
2018-09-30T15:53:04.457Z,65.95
2018-09-30T15:55:34.415Z,67.05
2018-09-30T15:58:05.534Z,67.43
2018-09-30T16:00:34.690Z,66.85
2018-09-30T16:03:04.007Z,67.34
2018-09-30T16:05:33.184Z,67.48
2018-09-30T16:08:02.405Z,67.46
2018-09-30T16:10:31.625Z,67.42
2018-09-30T16:13:00.890Z,67.36
2018-09-30T16:15:30.220Z,67.35
2018-09-30T16:17:59.360Z,67.10
2018-09-30T16:20:28.597Z,67.97
2018-09-30T16:22:57.860Z,68.29
2018-09-30T16:25:27.057Z,69.08
2018-09-30T16:27:57.106Z,69.08
2018-09-30T16:30:26.313Z,69.76
2018-09-30T16:32:55.480Z,70.02
2018-09-30T16:35:24.721Z,70.27
2018-09-30T16:37:53.981Z,70.44
2018-09-30T16:40:23.248Z,70.04
2018-09-30T16:42:52.529Z,71.03
2018-09-30T16:45:21.805Z,70.95
2018-09-30T16:47:51.016Z,71.59
2018-09-30T16:50:20.148Z,71.75
2018-09-30T16:52:49.327Z,72.25
2018-09-30T16:55:18.724Z,72.51
2018-09-30T16:57:47.976Z,72.14
2018-09-30T17:00:17.172Z,72.41
2018-09-30T17:02:46.352Z,72.92
2018-09-30T17:05:15.521Z,72.58
2018-09-30T17:07:44.985Z,72.76
2018-09-30T17:10:14.165Z,73.13
2018-09-30T17:12:43.620Z,73.31
2018-09-30T17:15:12.890Z,72.87
2018-09-30T17:17:42.073Z,73.30
2018-09-30T17:20:11.319Z,72.83
2018-09-30T17:22:40.468Z,73.62
2018-09-30T17:25:09.709Z,73.17
2018-09-30T17:27:38.914Z,73.65
2018-09-30T17:30:09.333Z,73.47
2018-09-30T17:32:38.603Z,73.83
2018-09-30T17:35:07.852Z,73.65
2018-09-30T17:37:37.168Z,73.74
2018-09-30T17:40:06.776Z,74.02
2018-09-30T17:42:35.961Z,74.09
2018-09-30T17:45:05.896Z,74.54
2018-09-30T17:47:35.108Z,74.24
2018-09-30T17:50:04.408Z,74.34
2018-09-30T17:52:33.589Z,74.35
2018-09-30T17:55:03.706Z,74.02
2018-09-30T17:57:32.927Z,73.76
2018-09-30T18:00:02.137Z,73.83
2018-09-30T18:02:31.364Z,74.52
2018-09-30T18:05:00.625Z,74.89
2018-09-30T18:07:29.900Z,74.92
2018-09-30T18:09:59.128Z,74.81
2018-09-30T18:12:28.318Z,75.13
2018-09-30T18:14:57.522Z,75.44
2018-09-30T18:17:26.684Z,76.04
2018-09-30T18:19:55.839Z,76.21
2018-09-30T18:22:25.025Z,76.10
2018-09-30T18:24:54.261Z,76.46
2018-09-30T18:27:23.484Z,76.57
2018-09-30T18:29:52.670Z,76.34
2018-09-30T18:32:21.873Z,76.40
2018-09-30T18:34:51.077Z,76.59
2018-09-30T18:37:20.303Z,76.91
2018-09-30T18:39:49.562Z,77.06
2018-09-30T18:42:18.735Z,77.11
2018-09-30T18:44:47.932Z,77.24
2018-09-30T18:47:17.162Z,77.51
2018-09-30T18:49:46.355Z,78.02
2018-09-30T18:52:15.574Z,77.93
2018-09-30T18:54:45.612Z,78.07
2018-09-30T18:57:14.825Z,78.20
2018-09-30T18:59:43.977Z,77.77
2018-09-30T19:02:13.199Z,77.75
2018-09-30T19:04:42.368Z,78.08
2018-09-30T19:07:11.588Z,78.12
2018-09-30T19:09:40.773Z,78.61
2018-09-30T19:12:09.975Z,78.51
2018-09-30T19:14:39.164Z,79.03
2018-09-30T19:17:10.303Z,78.74
2018-09-30T19:19:39.505Z,79.04
2018-09-30T19:22:08.756Z,78.91
2018-09-30T19:24:37.888Z,79.24
2018-09-30T19:27:07.701Z,79.34
2018-09-30T19:29:36.861Z,79.36
2018-09-30T19:32:06.117Z,79.65
2018-09-30T19:34:35.290Z,79.52
2018-09-30T19:37:04.427Z,79.73
2018-09-30T19:39:33.616Z,79.83
2018-09-30T19:42:02.752Z,79.11
2018-09-30T19:44:31.933Z,78.91
2018-09-30T19:47:01.161Z,78.51
2018-09-30T19:49:30.313Z,78.95
2018-09-30T19:51:59.452Z,78.97
2018-09-30T19:54:28.660Z,79.49
2018-09-30T19:56:57.828Z,80.17
2018-09-30T19:59:27.017Z,80.00
2018-09-30T20:01:56.152Z,79.93
2018-09-30T20:04:25.376Z,79.92
2018-09-30T20:06:54.592Z,80.22
2018-09-30T20:09:23.813Z,80.45
2018-09-30T20:11:52.905Z,80.47
2018-09-30T20:14:22.117Z,80.68
2018-09-30T20:16:51.332Z,80.86
2018-09-30T20:19:20.477Z,81.06
2018-09-30T20:21:49.751Z,81.17
2018-09-30T20:24:18.946Z,80.81
2018-09-30T20:26:48.448Z,81.00
2018-09-30T20:29:17.607Z,81.38
2018-09-30T20:31:46.804Z,80.98
2018-09-30T20:34:16.629Z,81.51
2018-09-30T20:36:45.851Z,81.49
2018-09-30T20:39:15.044Z,81.69
2018-09-30T20:41:44.227Z,82.15
2018-09-30T20:44:13.429Z,81.98
2018-09-30T20:46:42.623Z,81.89
2018-09-30T20:49:11.762Z,81.98
2018-09-30T20:51:40.914Z,81.89
2018-09-30T20:54:10.152Z,81.86
2018-09-30T20:56:39.350Z,81.76
2018-09-30T20:59:08.540Z,81.81
2018-09-30T21:01:37.679Z,81.45
2018-09-30T21:04:06.884Z,81.57
2018-09-30T21:06:37.380Z,81.78
2018-09-30T21:09:08.927Z,81.72
2018-09-30T21:11:38.251Z,81.56
2018-09-30T21:14:07.393Z,81.90
2018-09-30T21:16:36.629Z,81.64
2018-09-30T21:19:05.820Z,82.00
2018-09-30T21:21:34.938Z,81.62
2018-09-30T21:24:04.414Z,81.92
2018-09-30T21:26:33.591Z,81.52
2018-09-30T21:29:02.727Z,81.39
2018-09-30T21:31:31.853Z,81.38
2018-09-30T21:34:00.952Z,80.99
2018-09-30T21:36:30.117Z,81.32
2018-09-30T21:38:59.272Z,81.09
2018-09-30T21:41:28.733Z,81.41
2018-09-30T21:43:57.847Z,81.67
2018-09-30T21:46:27.019Z,81.59
2018-09-30T21:48:56.220Z,81.54
2018-09-30T21:51:25.384Z,81.60
2018-09-30T21:53:54.545Z,81.77
2018-09-30T21:56:24.550Z,81.67
2018-09-30T21:58:53.654Z,81.85
2018-09-30T22:01:22.871Z,82.03
2018-09-30T22:03:51.939Z,82.24
2018-09-30T22:06:21.028Z,82.32
2018-09-30T22:08:50.231Z,82.08
2018-09-30T22:11:19.944Z,82.14
2018-09-30T22:13:49.171Z,81.96
2018-09-30T22:16:18.351Z,82.08
2018-09-30T22:18:47.599Z,81.75
2018-09-30T22:21:16.740Z,82.15
2018-09-30T22:23:45.859Z,82.05
2018-09-30T22:26:15.588Z,82.11
2018-09-30T22:28:44.701Z,81.87
2018-09-30T22:31:13.874Z,81.59
2018-09-30T22:33:43.084Z,82.00
2018-09-30T22:36:12.175Z,81.93
2018-09-30T22:38:41.287Z,81.91
2018-09-30T22:41:10.459Z,81.97
2018-09-30T22:43:39.541Z,82.09
2018-09-30T22:46:08.664Z,82.19
2018-09-30T22:48:38.086Z,81.99
2018-09-30T22:51:07.221Z,82.86
2018-09-30T22:53:36.324Z,82.49
2018-09-30T22:56:05.467Z,82.47
2018-09-30T22:58:36.821Z,82.48
2018-09-30T23:01:05.980Z,82.55
2018-09-30T23:03:35.080Z,82.43
2018-09-30T23:06:04.210Z,82.35
2018-09-30T23:08:33.340Z,82.61
2018-09-30T23:11:02.456Z,82.54
2018-09-30T23:13:31.537Z,82.49
2018-09-30T23:16:00.710Z,82.58
2018-09-30T23:18:29.836Z,82.59
2018-09-30T23:20:59.008Z,82.84
2018-09-30T23:23:28.140Z,82.29
2018-09-30T23:25:57.219Z,82.59
2018-09-30T23:28:26.356Z,82.40
2018-09-30T23:30:55.472Z,82.55
2018-09-30T23:33:24.601Z,82.37
2018-09-30T23:35:53.712Z,82.14
2018-09-30T23:38:22.840Z,82.21
2018-09-30T23:40:51.948Z,82.48
2018-09-30T23:43:21.075Z,82.16
2018-09-30T23:45:50.228Z,82.00
2018-09-30T23:48:19.641Z,82.04
2018-09-30T23:50:48.758Z,81.59
2018-09-30T23:53:17.871Z,81.79
2018-09-30T23:55:47.110Z,82.40
2018-09-30T23:58:16.216Z,82.31
